createdAt,value
2023-03-08T00:00:18.066Z,148613.34
2023-03-08T00:02:44.129Z,148598.28
2023-03-08T00:05:10.601Z,148586.97
2023-03-08T00:07:36.831Z,148598.28
2023-03-08T00:10:03.491Z,148593.28
2023-03-08T00:12:29.552Z,148565.66
2023-03-08T00:14:55.647Z,148605.78
2023-03-08T00:17:21.537Z,148584.47
2023-03-08T00:19:47.406Z,148554.34
2023-03-08T00:22:13.205Z,148597.03
2023-03-08T00:24:39.091Z,148600.78
2023-03-08T00:27:04.938Z,148589.47
2023-03-08T00:29:31.303Z,148594.53
2023-03-08T00:31:57.210Z,148584.47
2023-03-08T00:34:23.038Z,148604.53
2023-03-08T00:36:48.864Z,148574.47
2023-03-08T00:39:15.821Z,148595.78
2023-03-08T00:41:42.060Z,148604.53
2023-03-08T00:44:08.338Z,148597.03
2023-03-08T00:46:34.255Z,148583.22
2023-03-08T00:49:00.164Z,148609.59
2023-03-08T00:51:26.047Z,148610.84
2023-03-08T00:53:51.912Z,148612.09
2023-03-08T00:56:17.799Z,148617.09
2023-03-08T00:58:43.643Z,148632.16
2023-03-08T01:01:14.775Z,148597.03
2023-03-08T01:03:40.621Z,148622.09
2023-03-08T01:06:09.415Z,148623.34
2023-03-08T01:08:37.671Z,148605.78
2023-03-08T01:11:03.837Z,148586.97
2023-03-08T01:13:32.354Z,148592.03
2023-03-08T01:15:58.574Z,148594.53
2023-03-08T01:18:25.135Z,148586.97
2023-03-08T01:20:59.597Z,148610.84
2023-03-08T01:23:26.286Z,148585.72
2023-03-08T01:26:04.420Z,148607.03
2023-03-08T01:28:30.793Z,148599.53
2023-03-08T01:31:08.862Z,148614.59
2023-03-08T01:33:35.156Z,148624.59
2023-03-08T01:36:04.200Z,148637.16
2023-03-08T01:38:30.194Z,148644.72
2023-03-08T01:41:00.145Z,148657.25
2023-03-08T01:43:31.748Z,148645.97
2023-03-08T01:46:00.593Z,148640.94
2023-03-08T01:48:32.102Z,148645.97
2023-03-08T01:50:59.480Z,148629.66
2023-03-08T01:53:25.349Z,148642.19
2023-03-08T01:55:51.745Z,148657.25
2023-03-08T01:58:18.080Z,148614.59
2023-03-08T02:00:43.962Z,148605.78
2023-03-08T02:03:11.220Z,148610.84
2023-03-08T02:05:41.222Z,148627.16
2023-03-08T02:08:07.424Z,148620.84
2023-03-08T02:10:35.652Z,148639.66
2023-03-08T02:13:04.103Z,148592.03
2023-03-08T02:15:30.052Z,148593.28
2023-03-08T02:17:55.816Z,148530.53
2023-03-08T02:20:32.242Z,148575.72
2023-03-08T02:23:16.889Z,148575.72
2023-03-08T02:25:55.372Z,148613.34
2023-03-08T02:28:22.982Z,148594.53
2023-03-08T02:30:50.268Z,148551.84
2023-03-08T02:33:17.206Z,148543.09
2023-03-08T02:35:44.128Z,148541.84
2023-03-08T02:38:11.783Z,148505.47
2023-03-08T02:40:38.842Z,148538.09
2023-03-08T02:43:04.711Z,148540.59
2023-03-08T02:45:33.233Z,148545.59
2023-03-08T02:48:00.286Z,148535.53
2023-03-08T02:50:26.686Z,148536.78
2023-03-08T02:52:52.642Z,148510.47
2023-03-08T02:55:18.599Z,148543.09
2023-03-08T02:57:44.669Z,148539.34
2023-03-08T03:00:11.006Z,148529.28
2023-03-08T03:02:36.927Z,148504.22
2023-03-08T03:05:10.101Z,148536.78
2023-03-08T03:07:41.093Z,148529.28
2023-03-08T03:10:10.901Z,148569.41
2023-03-08T03:12:37.101Z,148525.53
2023-03-08T03:15:05.441Z,148516.72
2023-03-08T03:17:31.815Z,148506.72
2023-03-08T03:19:57.686Z,148534.28
2023-03-08T03:22:23.661Z,148520.53
2023-03-08T03:24:50.556Z,148533.03
2023-03-08T03:27:17.853Z,148543.09
2023-03-08T03:29:44.059Z,148546.84
2023-03-08T03:32:10.261Z,148554.34
2023-03-08T03:34:36.182Z,148592.03
2023-03-08T03:37:02.164Z,148569.41
2023-03-08T03:39:33.274Z,148574.47
2023-03-08T03:41:59.987Z,148543.09
2023-03-08T03:44:29.307Z,148558.16
2023-03-08T03:46:55.125Z,148568.16
2023-03-08T03:49:20.912Z,148555.66
2023-03-08T03:51:46.817Z,148541.84
2023-03-08T03:54:12.763Z,148500.41
2023-03-08T03:56:38.611Z,148523.03
2023-03-08T03:59:04.435Z,148519.22
2023-03-08T04:01:31.589Z,148520.53
2023-03-08T04:03:58.373Z,148479.09
2023-03-08T04:06:26.573Z,148455.28
2023-03-08T04:08:55.433Z,148460.28
2023-03-08T04:11:24.500Z,148489.16
2023-03-08T04:13:50.371Z,148475.34
2023-03-08T04:16:21.843Z,148486.66
2023-03-08T04:18:48.183Z,148470.34
2023-03-08T04:21:14.764Z,148461.53
2023-03-08T04:23:40.942Z,148479.09
2023-03-08T04:26:07.273Z,148500.41
2023-03-08T04:28:33.521Z,148506.72
2023-03-08T04:31:00.528Z,148523.03
2023-03-08T04:33:26.596Z,148472.84
2023-03-08T04:35:52.467Z,148447.75
2023-03-08T04:38:18.807Z,148477.84
2023-03-08T04:41:09.783Z,148481.59
2023-03-08T04:43:36.228Z,148531.78
2023-03-08T04:46:02.756Z,148523.03
2023-03-08T04:48:28.582Z,148511.72
2023-03-08T04:50:57.090Z,148489.16
2023-03-08T04:53:23.992Z,148472.84
2023-03-08T04:55:50.717Z,148500.41
2023-03-08T04:58:17.596Z,148502.97
2023-03-08T05:00:43.941Z,148511.72
2023-03-08T05:03:10.080Z,148519.22
2023-03-08T05:05:36.341Z,148541.84
2023-03-08T05:08:05.511Z,148553.09
2023-03-08T05:10:31.908Z,148544.34
2023-03-08T05:12:58.189Z,148530.53
2023-03-08T05:15:24.567Z,148531.78
2023-03-08T05:17:51.067Z,148526.78
2023-03-08T05:20:17.673Z,148529.28
2023-03-08T05:22:57.612Z,148539.34
2023-03-08T05:25:24.323Z,148514.22
2023-03-08T05:27:50.206Z,148511.72
2023-03-08T05:30:16.270Z,148541.84
2023-03-08T05:32:42.238Z,148520.53
2023-03-08T05:35:08.660Z,148514.22
2023-03-08T05:37:34.738Z,148480.34
2023-03-08T05:40:00.528Z,148496.66
2023-03-08T05:42:30.639Z,148525.53
2023-03-08T05:44:56.424Z,148528.03
2023-03-08T05:47:22.329Z,148516.72
2023-03-08T05:49:48.166Z,148541.84
2023-03-08T05:52:14.118Z,148528.03
2023-03-08T05:54:40.110Z,148497.91
2023-03-08T05:57:05.925Z,148481.59
2023-03-08T05:59:31.905Z,148469.09
2023-03-08T06:01:58.053Z,148489.16
2023-03-08T06:04:24.011Z,148490.41
2023-03-08T06:06:50.152Z,148470.34
2023-03-08T06:09:15.988Z,148497.91
2023-03-08T06:11:41.839Z,148481.59
2023-03-08T06:14:07.833Z,148446.50
2023-03-08T06:16:33.736Z,148469.09
2023-03-08T06:19:01.029Z,148460.28
2023-03-08T06:21:26.927Z,148476.59
2023-03-08T06:23:52.844Z,148451.53
2023-03-08T06:26:18.896Z,148474.09
2023-03-08T06:28:45.254Z,148492.91
2023-03-08T06:31:13.869Z,148485.41
2023-03-08T06:33:40.073Z,148510.47
2023-03-08T06:36:08.957Z,148486.66
2023-03-08T06:38:37.213Z,148465.28
2023-03-08T06:41:03.895Z,148474.09
2023-03-08T06:43:29.704Z,148457.78
2023-03-08T06:45:55.700Z,148461.53
2023-03-08T06:48:22.091Z,148480.34
2023-03-08T06:50:48.118Z,148465.28
2023-03-08T06:53:14.481Z,148485.41
2023-03-08T06:55:41.447Z,148511.72
2023-03-08T06:58:08.003Z,148480.34
2023-03-08T07:00:34.687Z,148489.16
2023-03-08T07:03:01.267Z,148449.03
2023-03-08T07:05:27.685Z,148496.66
2023-03-08T07:07:53.715Z,148499.16
2023-03-08T07:10:21.879Z,148497.91
2023-03-08T07:12:50.563Z,148457.78
2023-03-08T07:15:19.106Z,148465.28
2023-03-08T07:17:46.243Z,148447.75
2023-03-08T07:20:14.279Z,148412.69
2023-03-08T07:22:41.363Z,148465.28
2023-03-08T07:25:08.801Z,148472.84
2023-03-08T07:27:34.613Z,148464.03
2023-03-08T07:30:00.450Z,148500.41
2023-03-08T07:32:28.424Z,148491.66
2023-03-08T07:34:55.228Z,148489.16
2023-03-08T07:37:21.130Z,148459.03
2023-03-08T07:39:47.142Z,148475.34
2023-03-08T07:42:13.413Z,148487.91
2023-03-08T07:44:39.343Z,148492.91
2023-03-08T07:47:06.223Z,148474.09
2023-03-08T07:49:32.337Z,148472.84
2023-03-08T07:51:58.490Z,148486.66
2023-03-08T07:54:24.724Z,148511.72
2023-03-08T07:56:55.113Z,148495.41
2023-03-08T07:59:22.483Z,148541.84
2023-03-08T08:01:49.582Z,148529.28
2023-03-08T08:04:16.522Z,148517.97
2023-03-08T08:06:42.533Z,148517.97
2023-03-08T08:09:11.835Z,148539.34
2023-03-08T08:11:38.334Z,148551.84
2023-03-08T08:14:04.757Z,148525.53
2023-03-08T08:16:31.266Z,148523.03
2023-03-08T08:18:57.303Z,148534.28
2023-03-08T08:21:24.918Z,148531.78
2023-03-08T08:23:54.230Z,148521.78
2023-03-08T08:26:21.269Z,148548.09
2023-03-08T08:28:49.900Z,148565.66
2023-03-08T08:31:19.262Z,148578.22
2023-03-08T08:33:45.210Z,148568.16
2023-03-08T08:36:17.400Z,148594.53
2023-03-08T08:38:45.457Z,148619.59
2023-03-08T08:41:14.600Z,148620.84
2023-03-08T08:43:41.375Z,148644.72
2023-03-08T08:46:08.068Z,148605.78
2023-03-08T08:48:34.280Z,148629.66
2023-03-08T08:51:00.750Z,148604.53
2023-03-08T08:53:27.151Z,148612.09
2023-03-08T08:55:53.386Z,148633.41
2023-03-08T08:58:19.264Z,148599.53
2023-03-08T09:00:47.320Z,148645.97
2023-03-08T09:03:13.238Z,148687.38
2023-03-08T09:05:41.703Z,148709.94
2023-03-08T09:08:08.458Z,148702.44
2023-03-08T09:10:36.787Z,148699.94
2023-03-08T09:13:03.647Z,148738.84
2023-03-08T09:15:29.675Z,148712.44
2023-03-08T09:17:55.807Z,148686.13
2023-03-08T09:20:23.427Z,148689.88
2023-03-08T09:22:50.177Z,148689.88
2023-03-08T09:25:18.806Z,148727.53
2023-03-08T09:27:44.616Z,148735.09
2023-03-08T09:30:13.136Z,148730.03
2023-03-08T09:32:39.323Z,148742.59
2023-03-08T09:35:06.597Z,148782.75
2023-03-08T09:37:33.116Z,148811.66
2023-03-08T09:39:59.224Z,148822.97
2023-03-08T09:42:32.084Z,148848.06
2023-03-08T09:45:16.603Z,148854.31
2023-03-08T09:47:47.508Z,148880.72
2023-03-08T09:50:13.681Z,148889.47
2023-03-08T09:52:42.754Z,148923.41
2023-03-08T09:55:30.985Z,148879.47
2023-03-08T09:58:01.056Z,148878.22
2023-03-08T10:00:35.903Z,148874.41
2023-03-08T10:03:17.325Z,148883.22
2023-03-08T10:06:09.831Z,148884.47
2023-03-08T10:08:49.086Z,148899.53
2023-03-08T10:11:24.864Z,148913.38
2023-03-08T10:13:55.464Z,148878.22
2023-03-08T10:16:27.956Z,148888.22
2023-03-08T10:19:14.181Z,148883.22
2023-03-08T10:21:42.671Z,148930.97
2023-03-08T10:24:14.572Z,148951.06
2023-03-08T10:26:44.182Z,148977.41
2023-03-08T10:29:13.716Z,149016.34
2023-03-08T10:31:42.628Z,149006.31
2023-03-08T10:34:08.397Z,149020.16
2023-03-08T10:36:34.374Z,149039.00
2023-03-08T10:39:06.616Z,149002.56
2023-03-08T10:41:40.517Z,149062.84
2023-03-08T10:44:12.066Z,149116.88
2023-03-08T10:46:47.906Z,149101.81
2023-03-08T10:49:18.993Z,149106.81
2023-03-08T10:51:59.727Z,149104.31
2023-03-08T10:54:27.354Z,149090.47
2023-03-08T10:56:59.299Z,149125.66
2023-03-08T10:59:36.868Z,149081.69
2023-03-08T11:02:11.997Z,149116.88
2023-03-08T11:04:49.417Z,149174.69
2023-03-08T11:07:28.494Z,149191.03
2023-03-08T11:10:16.155Z,149142.00
2023-03-08T11:12:42.499Z,149191.03
2023-03-08T11:15:16.351Z,149225.00
2023-03-08T11:17:58.904Z,149241.34
2023-03-08T11:20:25.838Z,149187.28
2023-03-08T11:23:26.071Z,149216.22
2023-03-08T11:26:07.674Z,149235.06
2023-03-08T11:28:46.797Z,149271.53
2023-03-08T11:31:30.225Z,149162.13
2023-03-08T11:34:35.936Z,149165.94
2023-03-08T11:37:04.031Z,149228.75
2023-03-08T11:39:37.958Z,149196.06
2023-03-08T11:42:25.122Z,149231.25
2023-03-08T11:45:12.236Z,149265.22
2023-03-08T11:47:57.310Z,149262.69
2023-03-08T11:50:37.570Z,149245.09
2023-03-08T11:53:08.537Z,149271.53
2023-03-08T11:56:13.149Z,149285.31
2023-03-08T11:58:51.450Z,149213.66
2023-03-08T12:01:31.904Z,149231.25
2023-03-08T12:04:08.882Z,149297.91
2023-03-08T12:06:40.058Z,149276.53
2023-03-08T12:09:19.330Z,149271.53
2023-03-08T12:12:19.173Z,149252.69
2023-03-08T12:15:04.789Z,149241.34
2023-03-08T12:17:40.166Z,149255.19
2023-03-08T12:20:13.271Z,149232.50
2023-03-08T12:22:39.223Z,149290.38
2023-03-08T12:25:20.286Z,149212.41
2023-03-08T12:28:18.168Z,149174.69
2023-03-08T12:30:50.870Z,149142.00
2023-03-08T12:33:17.826Z,149163.41
2023-03-08T12:36:10.127Z,149183.53
2023-03-08T12:38:44.185Z,149186.03
2023-03-08T12:41:22.230Z,149158.34
2023-03-08T12:43:58.923Z,149106.81
2023-03-08T12:46:24.829Z,149090.47
2023-03-08T12:48:51.376Z,149101.81
2023-03-08T12:51:26.173Z,149131.97
2023-03-08T12:53:51.976Z,149149.56
2023-03-08T12:56:23.172Z,149157.09
2023-03-08T12:58:51.426Z,149155.84
2023-03-08T13:01:32.860Z,149167.16
2023-03-08T13:03:59.359Z,149209.91
2023-03-08T13:06:25.388Z,149169.69
2023-03-08T13:09:15.746Z,149202.38
2023-03-08T13:11:47.472Z,149175.94
2023-03-08T13:14:45.766Z,149181.00
2023-03-08T13:17:29.932Z,149162.13
2023-03-08T13:19:59.231Z,149172.19
2023-03-08T13:22:33.510Z,149131.97
2023-03-08T13:25:08.260Z,149124.41
2023-03-08T13:28:02.300Z,149199.88
2023-03-08T13:30:35.121Z,149186.03
2023-03-08T13:33:08.258Z,149193.56
2023-03-08T13:35:34.231Z,149218.72
2023-03-08T13:38:00.207Z,149135.75
2023-03-08T13:40:28.215Z,149154.59
2023-03-08T13:42:58.956Z,149183.53
2023-03-08T13:45:26.422Z,149164.66
2023-03-08T13:47:54.452Z,149188.53
2023-03-08T13:50:29.101Z,149186.03
2023-03-08T13:52:55.469Z,149168.44
2023-03-08T13:55:30.210Z,149189.78
2023-03-08T13:57:56.410Z,149226.25
2023-03-08T14:00:22.428Z,149240.09
2023-03-08T14:02:48.369Z,149252.69
2023-03-08T14:05:36.992Z,149247.63
2023-03-08T14:08:05.999Z,149246.34
2023-03-08T14:10:44.913Z,149291.66
2023-03-08T14:13:25.835Z,149262.69
2023-03-08T14:15:55.645Z,149233.78
2023-03-08T14:18:24.583Z,149275.28
2023-03-08T14:21:14.108Z,149267.72
2023-03-08T14:23:42.371Z,149270.28
2023-03-08T14:26:31.618Z,149280.31
2023-03-08T14:29:15.797Z,149233.78
2023-03-08T14:32:09.802Z,149258.94
2023-03-08T14:34:38.692Z,149232.50
2023-03-08T14:37:10.472Z,149202.38
2023-03-08T14:39:38.919Z,149202.38
2023-03-08T14:42:14.810Z,149168.44
2023-03-08T14:44:40.886Z,149164.66
2023-03-08T14:47:20.446Z,149149.56
2023-03-08T14:49:55.036Z,149160.84
2023-03-08T14:52:21.442Z,149165.94
2023-03-08T14:54:47.244Z,149183.53
2023-03-08T14:57:22.088Z,149204.88
2023-03-08T14:59:48.952Z,149245.09
2023-03-08T15:02:16.430Z,149208.63
2023-03-08T15:04:43.388Z,149197.31
2023-03-08T15:07:23.152Z,149227.50
2023-03-08T15:09:50.845Z,149240.09
2023-03-08T15:12:17.564Z,149235.06
2023-03-08T15:14:43.949Z,149202.38
2023-03-08T15:17:09.750Z,149177.19
2023-03-08T15:19:35.678Z,149216.22
2023-03-08T15:22:04.622Z,149230.00
2023-03-08T15:24:30.492Z,149211.16
2023-03-08T15:26:56.553Z,149211.16
2023-03-08T15:29:31.736Z,149209.91
2023-03-08T15:31:58.273Z,149225.00
2023-03-08T15:34:27.927Z,149265.22
2023-03-08T15:36:54.788Z,149201.13
2023-03-08T15:39:21.056Z,149183.53
2023-03-08T15:41:46.964Z,149169.69
2023-03-08T15:44:13.035Z,149164.66
2023-03-08T15:46:40.096Z,149164.66
2023-03-08T15:49:06.392Z,149168.44
2023-03-08T15:51:36.184Z,149126.97
2023-03-08T15:54:04.382Z,149179.72
2023-03-08T15:56:30.214Z,149153.34
2023-03-08T15:58:56.246Z,149154.59
2023-03-08T16:01:24.863Z,149157.09
2023-03-08T16:03:55.517Z,149144.56
2023-03-08T16:06:22.504Z,149148.31
2023-03-08T16:08:48.553Z,149140.75
2023-03-08T16:11:16.721Z,149137.00
2023-03-08T16:13:42.713Z,149170.94
2023-03-08T16:16:09.302Z,149172.19
2023-03-08T16:18:36.039Z,149168.44
2023-03-08T16:21:08.565Z,149158.34
2023-03-08T16:23:35.464Z,149177.19
2023-03-08T16:26:14.602Z,149170.94
2023-03-08T16:28:43.005Z,149160.84
2023-03-08T16:31:09.060Z,149158.34
2023-03-08T16:33:35.925Z,149173.44
2023-03-08T16:36:01.968Z,149164.66
2023-03-08T16:38:27.931Z,149139.50
2023-03-08T16:41:02.939Z,149158.34
2023-03-08T16:43:46.415Z,149135.75
2023-03-08T16:46:19.596Z,149138.25
2023-03-08T16:48:48.560Z,149126.97
2023-03-08T16:51:16.527Z,149126.97
2023-03-08T16:53:42.773Z,149101.81
2023-03-08T16:56:10.022Z,149120.66
2023-03-08T16:58:35.916Z,149110.63
2023-03-08T17:01:10.194Z,149116.88
2023-03-08T17:03:38.367Z,149134.47
2023-03-08T17:06:10.157Z,149133.22
2023-03-08T17:08:36.030Z,149142.00
2023-03-08T17:11:04.339Z,149119.41
2023-03-08T17:13:33.586Z,149105.56
2023-03-08T17:15:59.480Z,149101.81
2023-03-08T19:25:17.158Z,149033.94
2023-03-08T19:27:43.040Z,149036.44
2023-03-08T19:30:09.912Z,149032.69
2023-03-08T19:32:35.858Z,149054.03
2023-03-08T19:35:03.761Z,149030.19
2023-03-08T19:37:30.126Z,149042.75
2023-03-08T19:39:56.278Z,149031.44
2023-03-08T19:42:22.351Z,149033.94
2023-03-08T19:44:49.880Z,149039.00
2023-03-08T19:47:17.294Z,149018.84
2023-03-08T19:49:43.797Z,149017.59
2023-03-08T19:52:13.410Z,149031.44
2023-03-08T19:54:41.596Z,149018.84
2023-03-08T19:57:09.569Z,149013.84
2023-03-08T19:59:36.978Z,149052.78
2023-03-08T20:02:05.133Z,149050.28
2023-03-08T20:04:31.638Z,149052.78
2023-03-08T20:07:01.026Z,149018.84
2023-03-08T20:09:27.674Z,149018.84
2023-03-08T20:11:57.686Z,149057.84
2023-03-08T20:14:29.239Z,149041.50
2023-03-08T20:16:56.332Z,149056.59
2023-03-08T20:19:22.314Z,149033.94
2023-03-08T20:21:48.649Z,149030.19
2023-03-08T20:24:17.449Z,149056.59
2023-03-08T20:26:44.259Z,149051.53
2023-03-08T20:29:10.560Z,149040.25
2023-03-08T20:31:36.499Z,149047.78
2023-03-08T20:34:02.890Z,149086.72
2023-03-08T20:36:29.155Z,149033.94
2023-03-08T20:38:57.133Z,149069.13
2023-03-08T20:41:23.238Z,149044.00
2023-03-08T20:43:56.721Z,149052.78
2023-03-08T20:46:27.054Z,149041.50
2023-03-08T20:48:53.231Z,149044.00
2023-03-08T20:51:20.702Z,149055.34
2023-03-08T20:53:52.533Z,149046.50
2023-03-08T20:56:20.504Z,149059.09
2023-03-08T20:58:47.202Z,149071.63
2023-03-08T21:01:32.792Z,149091.78
2023-03-08T21:03:59.224Z,149098.03
2023-03-08T21:06:29.486Z,149109.38
2023-03-08T21:08:56.485Z,149109.38
2023-03-08T21:11:22.407Z,149109.38
2023-03-08T21:13:50.021Z,149153.34
2023-03-08T21:16:18.317Z,149191.03
2023-03-08T21:18:48.326Z,149226.25
2023-03-08T21:21:33.502Z,149248.88
2023-03-08T21:24:02.315Z,149236.31
2023-03-08T21:26:29.084Z,149242.59
2023-03-08T21:28:57.561Z,149276.53
2023-03-08T21:31:24.005Z,149287.88
2023-03-08T21:33:50.099Z,149284.06
2023-03-08T21:36:16.488Z,149289.13
2023-03-08T21:38:42.771Z,149333.13
2023-03-08T21:41:18.557Z,149304.19
2023-03-08T21:43:44.731Z,149329.38
2023-03-08T21:46:10.790Z,149318.03
2023-03-08T21:48:36.731Z,149315.53
2023-03-08T21:51:07.099Z,149318.03
2023-03-08T21:53:33.446Z,149338.16
2023-03-08T21:55:59.595Z,149331.88
2023-03-08T21:58:25.429Z,149335.63
2023-03-08T22:00:51.454Z,149380.94
2023-03-08T22:03:17.386Z,149355.75
2023-03-08T22:05:43.464Z,149346.97
2023-03-08T22:08:09.539Z,149360.81
2023-03-08T22:10:35.360Z,149385.97
2023-03-08T22:13:01.352Z,149403.56
2023-03-08T22:15:27.222Z,149383.47
2023-03-08T22:17:53.180Z,149367.09
2023-03-08T22:20:19.414Z,149368.34
2023-03-08T22:22:45.422Z,149375.88
2023-03-08T22:25:11.428Z,149385.97
2023-03-08T22:27:38.024Z,149394.75
2023-03-08T22:30:10.122Z,149435.03
2023-03-08T22:32:37.899Z,149416.16
2023-03-08T22:35:04.208Z,149427.47
2023-03-08T22:37:30.125Z,149436.28
2023-03-08T22:39:56.131Z,149436.28
2023-03-08T22:42:21.966Z,149445.06
2023-03-08T22:44:47.822Z,149460.19
2023-03-08T22:47:13.664Z,149442.56
2023-03-08T22:49:39.499Z,149456.41
2023-03-08T22:52:06.526Z,149471.53
2023-03-08T22:54:32.413Z,149446.34
2023-03-08T22:56:58.278Z,149452.66
2023-03-08T22:59:25.017Z,149528.13
2023-03-08T23:01:51.908Z,149485.38
2023-03-08T23:04:19.394Z,149481.56
2023-03-08T23:06:46.917Z,149487.88
2023-03-08T23:09:13.306Z,149533.16
2023-03-08T23:11:42.262Z,149539.47
2023-03-08T23:14:08.590Z,149523.13
2023-03-08T23:16:35.067Z,149558.38
2023-03-08T23:19:01.875Z,149550.78
2023-03-08T23:21:29.635Z,149559.63
2023-03-08T23:23:56.862Z,149557.09
2023-03-08T23:26:26.178Z,149538.22
2023-03-08T23:28:57.568Z,149526.88
2023-03-08T23:31:26.691Z,149553.28
2023-03-08T23:33:53.720Z,149564.63
2023-03-08T23:36:22.588Z,149602.41
2023-03-08T23:38:49.211Z,149578.50
2023-03-08T23:41:15.896Z,149552.03
2023-03-08T23:43:42.420Z,149560.88
2023-03-08T23:46:14.286Z,149570.91
2023-03-08T23:48:40.691Z,149607.41
2023-03-08T23:51:09.447Z,149601.13
2023-03-08T23:53:35.988Z,149596.13
2023-03-08T23:56:02.529Z,149596.13
2023-03-08T23:58:28.741Z,149594.88
